Observations de surface / UK / EGNH

Québec | Canada | États-Unis | France | UK | Europe | Ailleurs

Affichage: Infos & localisation pour EGNH | Aide pour décoder les METARs

EGNH BLACKPOOL AIRPORT -- UK
Raw surface observations for station EGNH
EGNH 211720Z 00000KT 9999 BKN021 04/02 Q1026=
EGNH 211650Z 09003KT 9999 BKN018 04/02 Q1026=
EGNH 211620Z 07004KT 9999 BKN020 04/02 Q1026=
EGNH 211550Z 10005KT 9999 BKN017 04/02 Q1027=
EGNH 211520Z 10007KT 9999 BKN018 04/02 Q1027=
EGNH 211450Z 10008KT 9999 BKN018 04/02 Q1027=
EGNH 211420Z 11008KT 9999 BKN019 04/02 Q1027=
EGNH 211350Z 11011KT 9999 BKN018 04/02 Q1028=
EGNH 211320Z 12011KT 9999 BKN017 04/02 Q1028=
EGNH 211250Z 12010KT 9999 BKN015 04/02 Q1028=
EGNH 211220Z 12009KT 9999 BKN016 04/03 Q1029=
EGNH 211150Z 11011KT 9999 BKN016 04/02 Q1029=
EGNH 211120Z 11009KT 9999 FEW014 04/03 Q1029=
EGNH 211050Z 11007KT CAVOK 04/02 Q1029=
EGNH 211020Z 09006KT CAVOK 03/02 Q1029=
EGNH 210950Z 08006KT 9000 NSC 02/01 Q1030=
EGNH 210920Z 07007KT 9000 NSC 01/0 Q1030=
EGNH 210850Z 07007KT CAVOK 01/00 Q1030=
EGNH 210820Z 07007KT CAVOK 00/00 Q1030=
EGNH 210750Z 08008KT CAVOK 01/00 Q1030=
EGNH 210720Z 07008KT CAVOK 01/00 Q1030=
EGNH 210650Z 08009KT CAVOK 01/00 Q1030=
EGNH 210620Z 08008KT CAVOK 00/00 Q1030=
EGNH 202050Z 08007KT CAVOK 02/01 Q1033=
EGNH 202020Z 07005KT CAVOK 02/01 Q1033=
EGNH 201950Z 09005KT CAVOK 02/00 Q1033=
EGNH 201920Z 09006KT CAVOK 03/01 Q1033=
EGNH 201850Z 09005KT CAVOK 03/01 Q1033=
EGNH 201820Z 09006KT CAVOK 03/01 Q1033=
EGNH 201750Z 09003KT 9000 NSC 04/02 Q1033=
EGNH 201720Z 08004KT 9000 NSC 05/02 Q1033=